sensor_id;sensor_type;location;lat;lon;timestamp;pressure;altitude;pressure_sealevel;temperature;humidity
11710;BME280;5911;51.036;6.972;2023-06-22T01:03:43;100940.47;;;24.62;66.60
11710;BME280;5911;51.036;6.972;2023-06-22T01:06:15;100938.81;;;24.61;66.64
11710;BME280;5911;51.036;6.972;2023-06-22T01:08:50;100934.22;;;24.62;66.26
11710;BME280;5911;51.036;6.972;2023-06-22T01:11:23;100943.81;;;24.58;66.67
11710;BME280;5911;51.036;6.972;2023-06-22T01:13:58;100937.97;;;24.61;66.21
11710;BME280;5911;51.036;6.972;2023-06-22T01:16:31;100936.31;;;24.60;66.41
11710;BME280;5911;51.036;6.972;2023-06-22T01:19:01;100930.91;;;24.60;66.09
11710;BME280;5911;51.036;6.972;2023-06-22T01:21:34;100930.91;;;24.60;67.37
11710;BME280;5911;51.036;6.972;2023-06-22T01:24:13;100931.75;;;24.60;67.77
11710;BME280;5911;51.036;6.972;2023-06-22T01:26:54;100927.63;;;24.58;67.76
11710;BME280;5911;51.036;6.972;2023-06-22T01:29:27;100922.81;;;24.60;67.08
11710;BME280;5911;51.036;6.972;2023-06-22T01:31:56;100916.00;;;24.57;67.09
11710;BME280;5911;51.036;6.972;2023-06-22T01:34:28;100916.38;;;24.61;66.29
11710;BME280;5911;51.036;6.972;2023-06-22T01:36:57;100900.44;;;24.52;66.33
11710;BME280;5911;51.036;6.972;2023-06-22T01:39:29;100904.56;;;24.62;66.48
11710;BME280;5911;51.036;6.972;2023-06-22T01:41:58;100912.84;;;24.60;66.86
11710;BME280;5911;51.036;6.972;2023-06-22T01:44:28;100905.00;;;24.59;66.86
11710;BME280;5911;51.036;6.972;2023-06-22T01:46:57;100889.44;;;24.47;66.45
11710;BME280;5911;51.036;6.972;2023-06-22T01:49:25;100904.38;;;24.57;66.31
11710;BME280;5911;51.036;6.972;2023-06-22T01:51:53;100907.91;;;24.57;66.11
11710;BME280;5911;51.036;6.972;2023-06-22T01:54:21;100906.03;;;24.58;65.75
11710;BME280;5911;51.036;6.972;2023-06-22T01:56:49;100900.63;;;24.58;65.20
11710;BME280;5911;51.036;6.972;2023-06-22T01:59:20;100898.16;;;24.56;65.14
11710;BME280;5911;51.036;6.972;2023-06-22T02:01:58;100897.94;;;24.58;65.22
11710;BME280;5911;51.036;6.972;2023-06-22T02:04:33;100894.00;;;24.53;65.67
11710;BME280;5911;51.036;6.972;2023-06-22T02:07:07;100890.88;;;24.50;65.34
11710;BME280;5911;51.036;6.972;2023-06-22T02:09:38;100891.09;;;24.48;65.50
11710;BME280;5911;51.036;6.972;2023-06-22T02:12:11;100889.66;;;24.39;65.65
11710;BME280;5911;51.036;6.972;2023-06-22T02:14:40;100891.72;;;24.37;66.04
11710;BME280;5911;51.036;6.972;2023-06-22T02:17:10;100891.94;;;24.36;65.95
11710;BME280;5911;51.036;6.972;2023-06-22T02:19:38;100889.03;;;24.37;66.09
11710;BME280;5911;51.036;6.972;2023-06-22T02:22:08;100894.44;;;24.37;66.17
11710;BME280;5911;51.036;6.972;2023-06-22T02:24:36;100897.34;;;24.36;66.16
11710;BME280;5911;51.036;6.972;2023-06-22T02:27:05;100894.00;;;24.34;67.34
11710;BME280;5911;51.036;6.972;2023-06-22T02:29:33;100893.19;;;24.33;67.71
11710;BME280;5911;51.036;6.972;2023-06-22T02:32:01;100895.88;;;24.33;67.90
11710;BME280;5911;51.036;6.972;2023-06-22T02:34:32;100893.59;;;24.30;67.24
11710;BME280;5911;51.036;6.972;2023-06-22T02:37:00;100888.63;;;24.27;67.03
11710;BME280;5911;51.036;6.972;2023-06-22T02:39:29;100877.44;;;24.24;67.04
11710;BME280;5911;51.036;6.972;2023-06-22T02:41:57;100877.22;;;24.25;67.49
11710;BME280;5911;51.036;6.972;2023-06-22T02:44:25;100883.25;;;24.27;68.06
11710;BME280;5911;51.036;6.972;2023-06-22T02:46:53;100880.53;;;24.27;67.65
11710;BME280;5911;51.036;6.972;2023-06-22T02:49:21;100877.84;;;24.27;68.10
11710;BME280;5911;51.036;6.972;2023-06-22T02:51:51;100868.09;;;24.26;67.83
11710;BME280;5911;51.036;6.972;2023-06-22T02:54:20;100869.75;;;24.27;68.14
11710;BME280;5911;51.036;6.972;2023-06-22T02:56:51;100869.56;;;24.29;67.81
11710;BME280;5911;51.036;6.972;2023-06-22T02:59:20;100866.03;;;24.28;67.82
11710;BME280;5911;51.036;6.972;2023-06-22T03:01:53;100856.28;;;24.27;67.73
11710;BME280;5911;51.036;6.972;2023-06-22T03:04:25;100852.97;;;24.25;67.08
11710;BME280;5911;51.036;6.972;2023-06-22T03:06:54;100845.91;;;24.24;67.11
11710;BME280;5911;51.036;6.972;2023-06-22T03:09:22;100849.22;;;24.26;67.20
11710;BME280;5911;51.036;6.972;2023-06-22T03:11:50;100847.56;;;24.25;67.25
11710;BME280;5911;51.036;6.972;2023-06-22T03:14:19;100844.03;;;24.25;67.16
11710;BME280;5911;51.036;6.972;2023-06-22T03:16:47;100845.91;;;24.24;67.73
11710;BME280;5911;51.036;6.972;2023-06-22T03:19:18;100848.78;;;24.23;68.09
11710;BME280;5911;51.036;6.972;2023-06-22T03:21:46;100846.28;;;24.21;67.56
11710;BME280;5911;51.036;6.972;2023-06-22T03:24:15;100840.06;;;24.20;67.65
11710;BME280;5911;51.036;6.972;2023-06-22T03:26:43;100842.97;;;24.19;67.82
11710;BME280;5911;51.036;6.972;2023-06-22T03:29:13;100845.03;;;24.17;68.44
11710;BME280;5911;51.036;6.972;2023-06-22T03:31:41;100825.56;;;24.08;68.07
11710;BME280;5911;51.036;6.972;2023-06-22T03:34:09;100837.97;;;24.16;68.25
11710;BME280;5911;51.036;6.972;2023-06-22T03:36:36;100837.97;;;24.16;68.29
11710;BME280;5911;51.036;6.972;2023-06-22T03:39:04;100835.50;;;24.14;67.76
11710;BME280;5911;51.036;6.972;2023-06-22T03:41:33;100835.72;;;24.13;68.05
11710;BME280;5911;51.036;6.972;2023-06-22T03:44:01;100831.97;;;24.14;68.63
11710;BME280;5911;51.036;6.972;2023-06-22T03:46:29;100837.97;;;24.16;68.81
11710;BME280;5911;51.036;6.972;2023-06-22T03:48:57;100825.53;;;24.15;68.65
11710;BME280;5911;51.036;6.972;2023-06-22T03:51:25;100840.06;;;24.14;69.01
11710;BME280;5911;51.036;6.972;2023-06-22T03:53:53;100840.28;;;24.12;68.60
11710;BME280;5911;51.036;6.972;2023-06-22T03:56:20;100831.34;;;24.05;68.06
11710;BME280;5911;51.036;6.972;2023-06-22T03:58:49;100822.88;;;24.08;68.56
11710;BME280;5911;51.036;6.972;2023-06-22T04:01:18;100829.72;;;24.11;69.08
11710;BME280;5911;51.036;6.972;2023-06-22T04:03:46;100830.53;;;24.11;68.66
11710;BME280;5911;51.036;6.972;2023-06-22T04:06:16;100824.31;;;24.11;69.09
11710;BME280;5911;51.036;6.972;2023-06-22T04:08:45;100826.38;;;24.09;69.10
11710;BME280;5911;51.036;6.972;2023-06-22T04:11:14;100823.91;;;24.07;69.55
11710;BME280;5911;51.036;6.972;2023-06-22T04:13:45;100822.66;;;24.10;70.10
11710;BME280;5911;51.036;6.972;2023-06-22T04:16:19;100818.94;;;24.11;70.27
11710;BME280;5911;51.036;6.972;2023-06-22T04:18:47;100823.06;;;24.13;70.41
11710;BME280;5911;51.036;6.972;2023-06-22T04:21:14;100823.88;;;24.14;71.92
11710;BME280;5911;51.036;6.972;2023-06-22T04:23:42;100823.66;;;24.15;70.65
11710;BME280;5911;51.036;6.972;2023-06-22T04:26:10;100823.88;;;24.14;70.45
11710;BME280;5911;51.036;6.972;2023-06-22T04:28:38;100825.94;;;24.18;71.47
11710;BME280;5911;51.036;6.972;2023-06-22T04:31:06;100823.06;;;24.20;70.29
11710;BME280;5911;51.036;6.972;2023-06-22T04:33:35;100830.94;;;24.22;69.92
11710;BME280;5911;51.036;6.972;2023-06-22T04:36:07;100829.06;;;24.22;70.44
11710;BME280;5911;51.036;6.972;2023-06-22T04:38:34;100828.66;;;24.18;70.56
11710;BME280;5911;51.036;6.972;2023-06-22T04:41:02;100832.19;;;24.19;71.44
11710;BME280;5911;51.036;6.972;2023-06-22T04:43:30;100830.50;;;24.18;70.51
11710;BME280;5911;51.036;6.972;2023-06-22T04:45:58;100830.75;;;24.23;71.68
11710;BME280;5911;51.036;6.972;2023-06-22T04:48:29;100836.16;;;24.23;71.58
11710;BME280;5911;51.036;6.972;2023-06-22T04:51:01;100828.06;;;24.23;72.22
11710;BME280;5911;51.036;6.972;2023-06-22T04:53:30;100833.25;;;24.25;71.55
11710;BME280;5911;51.036;6.972;2023-06-22T04:55:58;100835.94;;;24.25;71.03
11710;BME280;5911;51.036;6.972;2023-06-22T04:58:26;100828.47;;;24.27;72.30
11710;BME280;5911;51.036;6.972;2023-06-22T05:00:55;100840.09;;;24.27;72.61
11710;BME280;5911;51.036;6.972;2023-06-22T05:03:24;100844.47;;;24.28;73.53
11710;BME280;5911;51.036;6.972;2023-06-22T05:05:53;100840.94;;;24.28;73.11
11710;BME280;5911;51.036;6.972;2023-06-22T05:08:23;100832.22;;;24.26;73.33
11710;BME280;5911;51.036;6.972;2023-06-22T05:10:53;100832.19;;;24.19;72.43
11710;BME280;5911;51.036;6.972;2023-06-22T05:13:42;100829.31;;;24.27;72.77
11710;BME280;5911;51.036;6.972;2023-06-22T05:16:11;100827.22;;;24.29;72.02
11710;BME280;5911;51.036;6.972;2023-06-22T05:18:43;100823.91;;;24.27;71.53
11710;BME280;5911;51.036;6.972;2023-06-22T05:21:12;100827.00;;;24.31;72.58
11710;BME280;5911;51.036;6.972;2023-06-22T05:23:42;100829.69;;;24.31;71.83
11710;BME280;5911;51.036;6.972;2023-06-22T05:26:10;100828.88;;;24.30;72.23
11710;BME280;5911;51.036;6.972;2023-06-22T05:28:39;100832.59;;;24.29;72.86
11710;BME280;5911;51.036;6.972;2023-06-22T05:31:08;100830.97;;;24.28;72.27
11710;BME280;5911;51.036;6.972;2023-06-22T05:33:39;100833.03;;;24.26;72.39
11710;BME280;5911;51.036;6.972;2023-06-22T05:36:11;100810.22;;;24.09;72.27
11710;BME280;5911;51.036;6.972;2023-06-22T05:38:46;100832.00;;;24.27;72.20
11710;BME280;5911;51.036;6.972;2023-06-22T05:41:14;100830.34;;;24.26;72.53
11710;BME280;5911;51.036;6.972;2023-06-22T05:43:46;100827.66;;;24.26;73.16
11710;BME280;5911;51.036;6.972;2023-06-22T05:46:19;100829.91;;;24.29;71.93
11710;BME280;5911;51.036;6.972;2023-06-22T05:48:47;100827.84;;;24.31;71.95
11710;BME280;5911;51.036;6.972;2023-06-22T05:51:19;100825.13;;;24.31;72.12
11710;BME280;5911;51.036;6.972;2023-06-22T05:53:52;100818.69;;;24.32;71.92
11710;BME280;5911;51.036;6.972;2023-06-22T05:56:20;100829.50;;;24.39;71.99
11710;BME280;5911;51.036;6.972;2023-06-22T05:58:48;100832.81;;;24.41;71.95
11710;BME280;5911;51.036;6.972;2023-06-22T06:01:18;100824.31;;;24.37;72.77
11710;BME280;5911;51.036;6.972;2023-06-22T06:03:45;100829.06;;;24.48;73.16
11710;BME280;5911;51.036;6.972;2023-06-22T06:06:16;100842.75;;;24.53;73.23
11710;BME280;5911;51.036;6.972;2023-06-22T06:08:44;100837.97;;;24.49;74.07
11710;BME280;5911;51.036;6.972;2023-06-22T06:11:14;100847.72;;;24.57;74.97
11710;BME280;5911;51.036;6.972;2023-06-22T06:13:42;100847.50;;;24.58;75.83
11710;BME280;5911;51.036;6.972;2023-06-22T06:16:10;100837.09;;;24.62;76.69
11710;BME280;5911;51.036;6.972;2023-06-22T06:18:38;100842.09;;;24.65;76.70
11710;BME280;5911;51.036;6.972;2023-06-22T06:21:06;100852.03;;;24.71;77.30
11710;BME280;5911;51.036;6.972;2023-06-22T06:23:33;100850.78;;;24.73;78.68
11710;BME280;5911;51.036;6.972;2023-06-22T06:26:01;100856.16;;;24.80;79.39
11710;BME280;5911;51.036;6.972;2023-06-22T06:28:35;100849.09;;;24.85;80.19
11710;BME280;5911;51.036;6.972;2023-06-22T06:31:02;100843.47;;;24.87;80.79
11710;BME280;5911;51.036;6.972;2023-06-22T06:33:33;100841.00;;;24.85;81.64
11710;BME280;5911;51.036;6.972;2023-06-22T06:36:02;100854.44;;;24.92;82.64
11710;BME280;5911;51.036;6.972;2023-06-22T06:38:30;100859.66;;;24.94;82.98
11710;BME280;5911;51.036;6.972;2023-06-22T06:40:58;100850.72;;;24.93;82.24
11710;BME280;5911;51.036;6.972;2023-06-22T06:43:26;100845.53;;;24.92;83.87
11710;BME280;5911;51.036;6.972;2023-06-22T06:45:55;100852.19;;;24.96;83.50
11710;BME280;5911;51.036;6.972;2023-06-22T06:48:23;100864.44;;;24.98;83.21
11710;BME280;5911;51.036;6.972;2023-06-22T06:50:51;100859.66;;;25.00;84.00
11710;BME280;5911;51.036;6.972;2023-06-22T06:53:19;100852.38;;;25.01;84.73
11710;BME280;5911;51.036;6.972;2023-06-22T06:55:47;100859.44;;;25.02;84.89
11710;BME280;5911;51.036;6.972;2023-06-22T06:58:14;100848.66;;;25.02;84.76
11710;BME280;5911;51.036;6.972;2023-06-22T07:00:42;100838.25;;;25.05;84.89
11710;BME280;5911;51.036;6.972;2023-06-22T07:03:12;100826.44;;;25.00;85.08
11710;BME280;5911;51.036;6.972;2023-06-22T07:05:40;100834.88;;;25.10;85.12
11710;BME280;5911;51.036;6.972;2023-06-22T07:08:08;100835.28;;;25.13;85.99
11710;BME280;5911;51.036;6.972;2023-06-22T07:10:36;100837.56;;;25.16;85.90
11710;BME280;5911;51.036;6.972;2023-06-22T07:13:04;100822.19;;;25.17;86.98
11710;BME280;5911;51.036;6.972;2023-06-22T07:15:32;100819.91;;;25.20;87.56
11710;BME280;5911;51.036;6.972;2023-06-22T07:18:00;100807.38;;;25.26;88.81
11710;BME280;5911;51.036;6.972;2023-06-22T07:20:29;100809.88;;;25.28;87.51
11710;BME280;5911;51.036;6.972;2023-06-22T07:22:57;100807.38;;;25.26;87.26
11710;BME280;5911;51.036;6.972;2023-06-22T07:25:25;100798.66;;;25.24;86.89
11710;BME280;5911;51.036;6.972;2023-06-22T07:27:58;100800.75;;;25.22;89.46
11710;BME280;5911;51.036;6.972;2023-06-22T07:30:26;100791.81;;;25.21;90.22
11710;BME280;5911;51.036;6.972;2023-06-22T07:32:55;100795.75;;;25.26;91.60
11710;BME280;5911;51.036;6.972;2023-06-22T07:35:23;100787.66;;;25.26;92.36
11710;BME280;5911;51.036;6.972;2023-06-22T07:37:52;100791.59;;;25.30;91.56
11710;BME280;5911;51.036;6.972;2023-06-22T07:40:20;100791.16;;;25.33;90.40
11710;BME280;5911;51.036;6.972;2023-06-22T07:42:48;100785.34;;;25.29;90.13
11710;BME280;5911;51.036;6.972;2023-06-22T07:45:18;100788.25;;;25.28;90.19
11710;BME280;5911;51.036;6.972;2023-06-22T07:47:49;100776.41;;;25.29;88.48
11710;BME280;5911;51.036;6.972;2023-06-22T07:50:17;100768.72;;;25.32;85.78
11710;BME280;5911;51.036;6.972;2023-06-22T07:52:44;100762.88;;;25.35;84.43
11710;BME280;5911;51.036;6.972;2023-06-22T07:55:17;100762.63;;;25.37;84.69
11710;BME280;5911;51.036;6.972;2023-06-22T07:57:47;100745.06;;;25.28;85.64
11710;BME280;5911;51.036;6.972;2023-06-22T08:00:15;100762.63;;;25.37;85.57
11710;BME280;5911;51.036;6.972;2023-06-22T08:02:45;100762.88;;;25.35;84.85
11710;BME280;5911;51.036;6.972;2023-06-22T08:05:14;100761.38;;;25.39;83.16
11710;BME280;5911;51.036;6.972;2023-06-22T08:07:51;100754.72;;;25.42;83.67
11710;BME280;5911;51.036;6.972;2023-06-22T08:10:23;100754.91;;;25.47;83.41
11710;BME280;5911;51.036;6.972;2023-06-22T08:12:51;100745.31;;;25.51;83.58
11710;BME280;5911;51.036;6.972;2023-06-22T08:15:19;100744.84;;;25.54;83.20
11710;BME280;5911;51.036;6.972;2023-06-22T08:17:49;100732.84;;;25.50;83.26
11710;BME280;5911;51.036;6.972;2023-06-22T08:20:18;100722.03;;;25.50;82.00
11710;BME280;5911;51.036;6.972;2023-06-22T08:22:46;100711.81;;;25.52;81.56
11710;BME280;5911;51.036;6.972;2023-06-22T08:25:14;100727.38;;;25.63;79.98
11710;BME280;5911;51.036;6.972;2023-06-22T08:27:46;100704.94;;;25.56;80.48
11710;BME280;5911;51.036;6.972;2023-06-22T08:30:15;100715.03;;;25.67;80.02
11710;BME280;5911;51.036;6.972;2023-06-22T08:32:44;100706.94;;;25.67;79.01
11710;BME280;5911;51.036;6.972;2023-06-22T08:35:12;100708.16;;;25.71;80.25
11710;BME280;5911;51.036;6.972;2023-06-22T08:37:39;100712.50;;;25.72;74.77
11710;BME280;5911;51.036;6.972;2023-06-22T08:40:09;100706.88;;;25.74;76.63
11710;BME280;5911;51.036;6.972;2023-06-22T08:42:39;100701.25;;;25.75;75.52
11710;BME280;5911;51.036;6.972;2023-06-22T08:45:10;100697.72;;;25.75;75.16
11710;BME280;5911;51.036;6.972;2023-06-22T08:47:38;100697.22;;;25.84;76.57
11710;BME280;5911;51.036;6.972;2023-06-22T08:50:08;100690.53;;;25.87;78.05
11710;BME280;5911;51.036;6.972;2023-06-22T08:52:36;100695.06;;;25.93;77.45
11710;BME280;5911;51.036;6.972;2023-06-22T08:55:05;100697.06;;;25.98;80.04
11710;BME280;5911;51.036;6.972;2023-06-22T08:57:33;100686.19;;;26.04;80.71
11710;BME280;5911;51.036;6.972;2023-06-22T09:00:05;100679.81;;;26.17;81.32
11710;BME280;5911;51.036;6.972;2023-06-22T09:02:35;100672.59;;;26.29;82.71
11710;BME280;5911;51.036;6.972;2023-06-22T09:05:04;100658.78;;;26.37;82.02
11710;BME280;5911;51.036;6.972;2023-06-22T09:07:32;100661.66;;;26.42;82.28
11710;BME280;5911;51.036;6.972;2023-06-22T09:10:01;100656.97;;;26.49;81.96
11710;BME280;5911;51.036;6.972;2023-06-22T09:12:31;100653.78;;;26.52;82.46
11710;BME280;5911;51.036;6.972;2023-06-22T09:14:59;100653.69;;;26.59;83.48
11710;BME280;5911;51.036;6.972;2023-06-22T09:17:28;100661.28;;;26.69;83.64
11710;BME280;5911;51.036;6.972;2023-06-22T09:19:58;100654.09;;;26.74;82.22
11710;BME280;5911;51.036;6.972;2023-06-22T09:22:28;100639.16;;;26.72;82.26
11710;BME280;5911;51.036;6.972;2023-06-22T09:24:56;100650.72;;;26.79;82.20
11710;BME280;5911;51.036;6.972;2023-06-22T09:27:23;100645.91;;;26.81;82.56
11710;BME280;5911;51.036;6.972;2023-06-22T09:29:51;100635.88;;;26.81;80.49
11710;BME280;5911;51.036;6.972;2023-06-22T09:32:19;100634.84;;;26.82;79.53
11710;BME280;5911;51.036;6.972;2023-06-22T09:34:47;100632.28;;;26.87;78.41
11710;BME280;5911;51.036;6.972;2023-06-22T09:37:16;100624.97;;;26.88;80.02
11710;BME280;5911;51.036;6.972;2023-06-22T09:39:44;100620.13;;;26.90;78.28
11710;BME280;5911;51.036;6.972;2023-06-22T09:42:12;100626.31;;;26.97;79.97
11710;BME280;5911;51.036;6.972;2023-06-22T09:44:40;100615.47;;;26.97;79.03
11710;BME280;5911;51.036;6.972;2023-06-22T09:47:08;100615.25;;;26.99;77.35
11710;BME280;5911;51.036;6.972;2023-06-22T09:49:36;100607.81;;;27.06;76.61
11710;BME280;5911;51.036;6.972;2023-06-22T09:52:15;100613.13;;;27.12;78.59
11710;BME280;5911;51.036;6.972;2023-06-22T09:54:43;100620.91;;;27.20;77.09
11710;BME280;5911;51.036;6.972;2023-06-22T09:57:11;100617.88;;;27.28;76.48
11710;BME280;5911;51.036;6.972;2023-06-22T09:59:39;100610.94;;;27.33;76.25
11710;BME280;5911;51.036;6.972;2023-06-22T10:02:07;100606.56;;;27.31;76.31
11710;BME280;5911;51.036;6.972;2023-06-22T10:04:35;100622.09;;;27.36;73.79
11710;BME280;5911;51.036;6.972;2023-06-22T10:07:07;100621.75;;;27.33;74.91
11710;BME280;5911;51.036;6.972;2023-06-22T10:09:36;100604.56;;;27.15;76.47
11710;BME280;5911;51.036;6.972;2023-06-22T10:12:05;100618.19;;;27.20;76.85
11710;BME280;5911;51.036;6.972;2023-06-22T10:14:33;100616.91;;;27.11;78.81
11710;BME280;5911;51.036;6.972;2023-06-22T10:17:02;100622.91;;;27.02;78.05
11710;BME280;5911;51.036;6.972;2023-06-22T10:19:30;100619.03;;;26.79;75.59
11710;BME280;5911;51.036;6.972;2023-06-22T10:21:58;100638.22;;;26.78;77.39
11710;BME280;5911;51.036;6.972;2023-06-22T10:24:25;100662.00;;;26.76;77.84
11710;BME280;5911;51.036;6.972;2023-06-22T10:26:55;100671.06;;;26.70;85.41
11710;BME280;5911;51.036;6.972;2023-06-22T10:29:25;100680.25;;;26.50;99.26
11710;BME280;5911;51.036;6.972;2023-06-22T10:31:53;100670.06;;;26.34;100.00
11710;BME280;5911;51.036;6.972;2023-06-22T10:34:21;100686.56;;;26.26;100.00
11710;BME280;5911;51.036;6.972;2023-06-22T10:36:49;100686.69;;;26.13;100.00
11710;BME280;5911;51.036;6.972;2023-06-22T10:39:16;100669.50;;;25.89;100.00
11710;BME280;5911;51.036;6.972;2023-06-22T10:41:44;100691.44;;;25.81;100.00
11710;BME280;5911;51.036;6.972;2023-06-22T10:44:14;100696.22;;;25.54;100.00
11710;BME280;5911;51.036;6.972;2023-06-22T10:46:41;100701.19;;;25.57;100.00
11710;BME280;5911;51.036;6.972;2023-06-22T10:49:09;100708.25;;;25.58;100.00
11710;BME280;5911;51.036;6.972;2023-06-22T10:51:37;100716.03;;;25.48;100.00
11710;BME280;5911;51.036;6.972;2023-06-22T10:54:05;100720.53;;;25.29;100.00
11710;BME280;5911;51.036;6.972;2023-06-22T10:56:32;100731.88;;;25.06;100.00
11710;BME280;5911;51.036;6.972;2023-06-22T10:59:01;100740.47;;;24.97;100.00
11710;BME280;5911;51.036;6.972;2023-06-22T11:01:30;100738.22;;;24.87;100.00
11710;BME280;5911;51.036;6.972;2023-06-22T11:04:02;100735.31;;;24.82;100.00
11710;BME280;5911;51.036;6.972;2023-06-22T11:06:31;100740.78;;;24.69;100.00
11710;BME280;5911;51.036;6.972;2023-06-22T11:08:59;100740.81;;;24.62;100.00
11710;BME280;5911;51.036;6.972;2023-06-22T11:11:43;100758.63;;;24.70;100.00
11710;BME280;5911;51.036;6.972;2023-06-22T11:14:10;100772.56;;;24.67;100.00
11710;BME280;5911;51.036;6.972;2023-06-22T11:16:40;100765.13;;;24.56;100.00
11710;BME280;5911;51.036;6.972;2023-06-22T11:19:09;100756.63;;;24.52;100.00
11710;BME280;5911;51.036;6.972;2023-06-22T11:21:37;100735.88;;;24.52;100.00
11710;BME280;5911;51.036;6.972;2023-06-22T11:24:05;100705.78;;;24.56;100.00
11710;BME280;5911;51.036;6.972;2023-06-22T11:26:35;100669.00;;;24.61;100.00
11710;BME280;5911;51.036;6.972;2023-06-22T11:29:04;100665.84;;;24.71;100.00
11710;BME280;5911;51.036;6.972;2023-06-22T11:31:32;100683.22;;;24.81;100.00
11710;BME280;5911;51.036;6.972;2023-06-22T11:34:02;100684.66;;;24.84;100.00
11710;BME280;5911;51.036;6.972;2023-06-22T11:36:30;100679.44;;;24.89;100.00
11710;BME280;5911;51.036;6.972;2023-06-22T11:38:59;100657.66;;;24.84;100.00
11710;BME280;5911;51.036;6.972;2023-06-22T11:41:27;100636.47;;;24.87;100.00
11710;BME280;5911;51.036;6.972;2023-06-22T11:43:56;100640.00;;;24.88;100.00
11710;BME280;5911;51.036;6.972;2023-06-22T11:46:24;100619.47;;;24.87;100.00
11710;BME280;5911;51.036;6.972;2023-06-22T11:48:52;100607.78;;;24.93;100.00
11710;BME280;5911;51.036;6.972;2023-06-22T11:51:21;100589.34;;;24.90;100.00
11710;BME280;5911;51.036;6.972;2023-06-22T11:53:53;100561.75;;;24.88;100.00
11710;BME280;5911;51.036;6.972;2023-06-22T11:56:21;100536.47;;;24.76;100.00
11710;BME280;5911;51.036;6.972;2023-06-22T11:58:48;100528.38;;;24.76;100.00
11710;BME280;5911;51.036;6.972;2023-06-22T12:01:16;100546.84;;;24.79;100.00
11710;BME280;5911;51.036;6.972;2023-06-22T12:03:44;100568.63;;;24.84;100.00
11710;BME280;5911;51.036;6.972;2023-06-22T12:06:15;100577.94;;;24.88;100.00
11710;BME280;5911;51.036;6.972;2023-06-22T12:08:44;100576.28;;;24.87;100.00
11710;BME280;5911;51.036;6.972;2023-06-22T12:11:12;100572.53;;;24.88;100.00
11710;BME280;5911;51.036;6.972;2023-06-22T12:13:47;100564.41;;;25.19;100.00
11710;BME280;5911;51.036;6.972;2023-06-22T12:16:15;100558.28;;;25.49;100.00
11710;BME280;5911;51.036;6.972;2023-06-22T12:18:43;100554.69;;;25.73;100.00
11710;BME280;5911;51.036;6.972;2023-06-22T12:21:11;100557.19;;;25.75;100.00
11710;BME280;5911;51.036;6.972;2023-06-22T12:23:39;100562.31;;;25.58;100.00
11710;BME280;5911;51.036;6.972;2023-06-22T12:26:08;100552.94;;;25.61;100.00
11710;BME280;5911;51.036;6.972;2023-06-22T12:28:37;100543.63;;;25.56;100.00
11710;BME280;5911;51.036;6.972;2023-06-22T12:31:05;100534.25;;;25.41;100.00
11710;BME280;5911;51.036;6.972;2023-06-22T12:33:33;100547.31;;;25.44;100.00
11710;BME280;5911;51.036;6.972;2023-06-22T12:36:01;100549.56;;;25.47;100.00
11710;BME280;5911;51.036;6.972;2023-06-22T12:38:31;100537.50;;;25.49;100.00
11710;BME280;5911;51.036;6.972;2023-06-22T12:41:00;100539.28;;;26.10;100.00
11710;BME280;5911;51.036;6.972;2023-06-22T12:43:29;100530.75;;;26.67;100.00
11710;BME280;5911;51.036;6.972;2023-06-22T12:45:57;100524.47;;;26.96;100.00
11710;BME280;5911;51.036;6.972;2023-06-22T12:48:25;100525.75;;;27.28;100.00
11710;BME280;5911;51.036;6.972;2023-06-22T12:50:53;100513.22;;;27.51;100.00
11710;BME280;5911;51.036;6.972;2023-06-22T12:53:21;100517.72;;;27.57;100.00
11710;BME280;5911;51.036;6.972;2023-06-22T12:55:50;100495.47;;;27.31;100.00
11710;BME280;5911;51.036;6.972;2023-06-22T12:58:20;100494.06;;;27.29;100.00
11710;BME280;5911;51.036;6.972;2023-06-22T13:00:51;100484.63;;;27.31;100.00
11710;BME280;5911;51.036;6.972;2023-06-22T13:03:19;100489.22;;;27.19;100.00
11710;BME280;5911;51.036;6.972;2023-06-22T13:05:48;100478.84;;;26.93;100.00
11710;BME280;5911;51.036;6.972;2023-06-22T13:08:18;100482.91;;;27.02;100.00
11710;BME280;5911;51.036;6.972;2023-06-22T13:10:45;100470.25;;;27.31;100.00
11710;BME280;5911;51.036;6.972;2023-06-22T13:13:16;100467.47;;;27.66;100.00
11710;BME280;5911;51.036;6.972;2023-06-22T13:15:44;100464.28;;;27.97;100.00
11710;BME280;5911;51.036;6.972;2023-06-22T13:18:13;100465.75;;;27.88;100.00
11710;BME280;5911;51.036;6.972;2023-06-22T13:20:41;100459.34;;;27.66;100.00
11710;BME280;5911;51.036;6.972;2023-06-22T13:23:10;100458.13;;;28.02;100.00
11710;BME280;5911;51.036;6.972;2023-06-22T13:25:39;100438.41;;;28.07;100.00
11710;BME280;5911;51.036;6.972;2023-06-22T13:28:07;100439.31;;;28.12;100.00
11710;BME280;5911;51.036;6.972;2023-06-22T13:30:49;100432.72;;;27.91;100.00
11710;BME280;5911;51.036;6.972;2023-06-22T13:33:18;100428.38;;;27.90;100.00
11710;BME280;5911;51.036;6.972;2023-06-22T13:35:46;100422.97;;;28.07;100.00
11710;BME280;5911;51.036;6.972;2023-06-22T13:38:14;100422.19;;;28.23;100.00
11710;BME280;5911;51.036;6.972;2023-06-22T13:40:42;100409.94;;;28.38;100.00
11710;BME280;5911;51.036;6.972;2023-06-22T13:43:09;100410.59;;;28.45;100.00
11710;BME280;5911;51.036;6.972;2023-06-22T13:45:37;100394.94;;;28.68;100.00
11710;BME280;5911;51.036;6.972;2023-06-22T13:48:05;100390.13;;;28.92;100.00
11710;BME280;5911;51.036;6.972;2023-06-22T13:50:34;100382.50;;;29.11;100.00
11710;BME280;5911;51.036;6.972;2023-06-22T13:53:03;100384.38;;;28.89;100.00
11710;BME280;5911;51.036;6.972;2023-06-22T13:55:30;100380.88;;;28.72;100.00
11710;BME280;5911;51.036;6.972;2023-06-22T13:57:58;100370.34;;;28.42;100.00
11710;BME280;5911;51.036;6.972;2023-06-22T14:00:26;100360.09;;;28.27;100.00
11710;BME280;5911;51.036;6.972;2023-06-22T14:02:55;100343.81;;;28.10;100.00
11710;BME280;5911;51.036;6.972;2023-06-22T14:05:23;100337.72;;;28.03;100.00
11710;BME280;5911;51.036;6.972;2023-06-22T14:07:53;100331.63;;;27.96;100.00
11710;BME280;5911;51.036;6.972;2023-06-22T14:10:20;100313.41;;;27.91;100.00